Time;durP1;ratioP1;P1;durP2;ratioP2;P2;SDS_P1;SDS_P2;PMS_P1;PMS_P2;Temp;Humidity;BMP_temperature;BMP_pressure;BME280_temperature;BME280_humidity;BME280_pressure;Samples;Min_cycle;Max_cycle;Signal;HPM_P1;HPM_P2
2022/03/03 00:01:54;;;;;;;;;;;;;;;;;;5054032;28;19913;-74
2022/03/03 00:04:20;;;;;;;;;;;;;;;;;;5072306;28;19913;-74
2022/03/03 00:06:45;;;;;;;;;;;;;;;;;;5072010;28;19920;-74
2022/03/03 00:09:10;;;;;;;;;;;;;;;;;;5054291;28;20395;-72
2022/03/03 00:11:36;;;;;;;;;;;;;;;;;;5072065;28;19912;-74
2022/03/03 00:14:01;;;;;;;;;;;;;;;;;;5072265;28;20398;-74
2022/03/03 00:16:27;;;;;;;;;;;;;;;;;;5071902;28;19984;-74
2022/03/03 00:18:52;;;;;;;;;;;;;;;;;;5053904;28;19912;-74
2022/03/03 00:21:18;;;;;;;;;;;;;;;;;;5071916;28;19913;-75
2022/03/03 00:23:45;;;;;;;;;;;;;;;;;;5072195;28;19922;-73
2022/03/03 00:26:10;;;;;;;;;;;;;;;;;;5071995;28;19916;-76
2022/03/03 00:28:36;;;;;;;;;;;;;;;;;;5053654;28;20403;-73
2022/03/03 00:31:01;;;;;;;;;;;;;;;;;;5071946;28;20368;-75
2022/03/03 00:33:26;;;;;;;;;;;;;;;;;;5071838;28;19916;-73
2022/03/03 00:35:52;;;;;;;;;;;;;;;;;;5071724;28;20257;-73
2022/03/03 00:38:17;;;;;;;;;;;;;;;;;;5071788;28;19912;-73
2022/03/03 00:40:43;;;;;;;;;;;;;;;;;;5071578;28;19912;-73
2022/03/03 00:43:08;;;;;;;;;;;;;;;;;;5071584;28;19920;-75
2022/03/03 00:45:34;;;;;;;;;;;;;;;;;;5071749;28;19958;-74
2022/03/03 00:48:00;;;;;;;;;;;;;;;;;;5036700;28;20337;-74
2022/03/03 00:50:26;;;;;;;;;;;;;;;;;;5053398;28;19974;-74
2022/03/03 00:52:51;;;;;;;;;;;;;;;;;;5071389;28;19912;-72
2022/03/03 00:55:17;;;;;;;;;;;;;;;;;;5070492;28;19913;-73
2022/03/03 00:57:42;;;;;;;;;;;;;;;;;;5053427;28;19917;-73
2022/03/03 01:00:08;;;;;;;;;;;;;;;;;;5072015;28;19913;-74
2022/03/03 01:02:34;;;;;;;;;;;;;;;;;;5057093;28;19920;-75
2022/03/03 01:04:59;;;;;;;;;;;;;;;;;;5073066;28;20371;-75
2022/03/03 01:07:25;;;;;;;;;;;;;;;;;;5057967;28;19913;-74
2022/03/03 01:09:50;;;;;;;;;;;;;;;;;;5071253;28;20003;-73
2022/03/03 01:12:16;;;;;;;;;;;;;;;;;;5053151;28;19923;-74
2022/03/03 01:14:41;;;;;;;;;;;;;;;;;;5071123;28;19920;-74
2022/03/03 01:17:06;;;;;;;;;;;;;;;;;;5069407;28;19926;-73
2022/03/03 01:19:32;;;;;;;;;;;;;;;;;;5053311;28;19912;-76
2022/03/03 01:21:57;;;;;;;;;;;;;;;;;;5070660;28;19952;-75
2022/03/03 01:24:23;;;;;;;;;;;;;;;;;;5052799;28;19923;-74
2022/03/03 01:26:48;;;;;;;;;;;;;;;;;;5070669;28;20361;-74
2022/03/03 01:29:13;;;;;;;;;;;;;;;;;;5070743;28;19912;-75
2022/03/03 01:31:39;;;;;;;;;;;;;;;;;;5070441;28;19912;-71
2022/03/03 01:34:06;;;;;;;;;;;;;;;;;;5052316;28;19970;-73
2022/03/03 01:36:31;;;;;;;;;;;;;;;;;;5070374;28;19912;-73
2022/03/03 01:38:57;;;;;;;;;;;;;;;;;;5068885;28;19923;-74
2022/03/03 01:41:22;;;;;;;;;;;;;;;;;;5070620;28;19924;-74
2022/03/03 01:43:47;;;;;;;;;;;;;;;;;;5070165;28;19912;-72
2022/03/03 01:46:13;;;;;;;;;;;;;;;;;;5035931;28;20017;-71
2022/03/03 01:48:38;;;;;;;;;;;;;;;;;;5052043;28;19913;-72
2022/03/03 01:51:05;;;;;;;;;;;;;;;;;;5070182;28;19923;-72
2022/03/03 01:53:32;;;;;;;;;;;;;;;;;;5070159;28;19997;-72
2022/03/03 01:55:57;;;;;;;;;;;;;;;;;;5069991;28;19953;-73
2022/03/03 01:58:22;;;;;;;;;;;;;;;;;;5052048;28;20230;-72
2022/03/03 02:00:49;;;;;;;;;;;;;;;;;;5051858;28;19948;-71
2022/03/03 02:03:15;;;;;;;;;;;;;;;;;;5052174;28;20015;-72
2022/03/03 02:05:40;;;;;;;;;;;;;;;;;;5069569;28;20444;-71
2022/03/03 02:08:05;;;;;;;;;;;;;;;;;;5070366;28;20354;-71
2022/03/03 02:10:31;;;;;;;;;;;;;;;;;;5072352;28;19913;-72
2022/03/03 02:12:57;;;;;;;;;;;;;;;;;;5055588;28;19920;-72
2022/03/03 02:15:22;;;;;;;;;;;;;;;;;;5075719;28;19912;-72
2022/03/03 02:17:48;;;;;;;;;;;;;;;;;;5055365;28;19924;-72
2022/03/03 02:20:21;;;;;;;;;;;;;;;;;;5052206;28;20007;-72
2022/03/03 02:22:46;;;;;;;;;;;;;;;;;;5069829;28;19924;-72
2022/03/03 02:25:12;;;;;;;;;;;;;;;;;;5051703;28;19912;-71
2022/03/03 02:27:37;;;;;;;;;;;;;;;;;;5069750;28;20007;-72
2022/03/03 02:30:03;;;;;;;;;;;;;;;;;;5051557;28;19913;-71
2022/03/03 02:32:28;;;;;;;;;;;;;;;;;;5051472;28;19920;-72
2022/03/03 02:34:54;;;;;;;;;;;;;;;;;;5051081;28;19916;-72
2022/03/03 02:37:19;;;;;;;;;;;;;;;;;;5068797;28;19916;-72
2022/03/03 02:39:44;;;;;;;;;;;;;;;;;;5067932;28;19920;-72
2022/03/03 02:42:10;;;;;;;;;;;;;;;;;;5069632;28;20449;-73
2022/03/03 02:44:35;;;;;;;;;;;;;;;;;;5051605;28;20347;-72
2022/03/03 02:47:00;;;;;;;;;;;;;;;;;;5067830;28;19946;-72
2022/03/03 02:49:26;;;;;;;;;;;;;;;;;;5070816;28;19923;-73
2022/03/03 02:51:52;;;;;;;;;;;;;;;;;;5070495;28;19916;-71
2022/03/03 02:54:18;;;;;;;;;;;;;;;;;;5049391;28;20011;-72
2022/03/03 02:59:27;;;;;;;;;;;;;;;;;;5051482;28;19998;-70
2022/03/03 03:01:52;;;;;;;;;;;;;;;;;;5048004;28;19971;-71
2022/03/03 03:04:18;;;;;;;;;;;;;;;;;;5049433;28;19947;-72
2022/03/03 03:06:43;;;;;;;;;;;;;;;;;;5050799;28;19916;-71
2022/03/03 03:09:09;;;;;;;;;;;;;;;;;;5051090;28;19920;-71
2022/03/03 03:11:34;;;;;;;;;;;;;;;;;;5048551;28;19912;-72
2022/03/03 03:13:59;;;;;;;;;;;;;;;;;;5049521;28;19916;-72
2022/03/03 03:16:25;;;;;;;;;;;;;;;;;;5048108;28;20534;-72
2022/03/03 03:18:50;;;;;;;;;;;;;;;;;;5058440;28;19954;-72
2022/03/03 03:21:16;;;;;;;;;;;;;;;;;;5071772;28;19927;-72
2022/03/03 03:23:41;;;;;;;;;;;;;;;;;;5073156;28;19912;-70
2022/03/03 03:26:07;;;;;;;;;;;;;;;;;;5072666;28;19920;-71
2022/03/03 03:28:32;;;;;;;;;;;;;;;;;;5072647;28;19919;-71
2022/03/03 03:30:59;;;;;;;;;;;;;;;;;;5054780;28;19913;-72
2022/03/03 03:33:24;;;;;;;;;;;;;;;;;;5054664;28;19963;-71
2022/03/03 03:35:49;;;;;;;;;;;;;;;;;;5072878;28;20007;-72
2022/03/03 03:38:15;;;;;;;;;;;;;;;;;;5072869;28;19916;-72
2022/03/03 03:40:40;;;;;;;;;;;;;;;;;;5072594;28;19912;-71
2022/03/03 03:43:05;;;;;;;;;;;;;;;;;;5072380;28;19978;-72
2022/03/03 03:45:31;;;;;;;;;;;;;;;;;;5072335;28;20313;-72
2022/03/03 03:47:57;;;;;;;;;;;;;;;;;;5070619;28;19928;-71
2022/03/03 03:50:24;;;;;;;;;;;;;;;;;;5071981;28;20922;-72
2022/03/03 03:52:50;;;;;;;;;;;;;;;;;;5072057;28;20228;-72
2022/03/03 03:55:15;;;;;;;;;;;;;;;;;;5072438;28;19920;-70
2022/03/03 03:57:41;;;;;;;;;;;;;;;;;;5072069;28;19935;-72
2022/03/03 04:00:08;;;;;;;;;;;;;;;;;;5072152;28;19927;-72
2022/03/03 04:02:33;;;;;;;;;;;;;;;;;;5054199;28;19916;-71
2022/03/03 04:04:58;;;;;;;;;;;;;;;;;;5071875;28;20275;-70
2022/03/03 04:07:24;;;;;;;;;;;;;;;;;;5054081;28;19912;-72
2022/03/03 04:09:49;;;;;;;;;;;;;;;;;;5071889;28;19936;-73
2022/03/03 04:12:14;;;;;;;;;;;;;;;;;;5072348;28;19913;-72
2022/03/03 04:14:40;;;;;;;;;;;;;;;;;;5072191;28;19920;-72
2022/03/03 04:17:06;;;;;;;;;;;;;;;;;;5071742;28;19948;-71
2022/03/03 04:19:32;;;;;;;;;;;;;;;;;;5071785;28;20350;-72
2022/03/03 04:21:57;;;;;;;;;;;;;;;;;;5071752;28;19916;-72
2022/03/03 04:24:23;;;;;;;;;;;;;;;;;;5071867;28;20380;-71
2022/03/03 04:26:48;;;;;;;;;;;;;;;;;;5053354;28;19927;-73
2022/03/03 04:29:14;;;;;;;;;;;;;;;;;;5070422;28;19920;-72
2022/03/03 04:31:39;;;;;;;;;;;;;;;;;;5071909;28;20300;-71
2022/03/03 04:34:05;;;;;;;;;;;;;;;;;;5053562;28;19916;-71
2022/03/03 04:36:30;;;;;;;;;;;;;;;;;;5071532;28;19912;-71
2022/03/03 04:38:55;;;;;;;;;;;;;;;;;;5071386;28;19916;-72
2022/03/03 04:41:21;;;;;;;;;;;;;;;;;;5071386;28;20018;-72
2022/03/03 04:43:46;;;;;;;;;;;;;;;;;;5071766;28;19928;-71
2022/03/03 04:46:12;;;;;;;;;;;;;;;;;;5071093;28;19982;-71
2022/03/03 04:48:37;;;;;;;;;;;;;;;;;;5071415;28;19912;-72
2022/03/03 04:51:03;;;;;;;;;;;;;;;;;;5071156;28;20384;-71
2022/03/03 04:53:29;;;;;;;;;;;;;;;;;;5071073;28;20414;-72
2022/03/03 04:55:55;;;;;;;;;;;;;;;;;;5053123;28;19923;-72
2022/03/03 04:58:20;;;;;;;;;;;;;;;;;;5053085;28;20288;-72
2022/03/03 05:00:46;;;;;;;;;;;;;;;;;;5052816;28;19923;-71
2022/03/03 05:03:13;;;;;;;;;;;;;;;;;;5070832;28;19919;-72
2022/03/03 05:05:38;;;;;;;;;;;;;;;;;;5070974;28;19999;-73
2022/03/03 05:08:03;;;;;;;;;;;;;;;;;;5070947;28;20023;-72
2022/03/03 05:10:29;;;;;;;;;;;;;;;;;;5070967;28;20380;-72
2022/03/03 05:12:54;;;;;;;;;;;;;;;;;;5070415;28;19936;-72
2022/03/03 05:15:20;;;;;;;;;;;;;;;;;;5052804;28;19935;-73
2022/03/03 05:17:45;;;;;;;;;;;;;;;;;;5052627;28;19918;-71
2022/03/03 05:20:15;;;;;;;;;;;;;;;;;;5070465;28;20700;-71
2022/03/03 05:22:41;;;;;;;;;;;;;;;;;;5052454;28;19955;-71
2022/03/03 05:25:07;;;;;;;;;;;;;;;;;;5070157;28;20049;-72
2022/03/03 05:27:33;;;;;;;;;;;;;;;;;;5070770;28;19918;-73
2022/03/03 05:29:59;;;;;;;;;;;;;;;;;;5070673;28;19965;-73
2022/03/03 05:32:24;;;;;;;;;;;;;;;;;;5052189;28;20310;-71
2022/03/03 05:34:49;;;;;;;;;;;;;;;;;;5070552;28;19921;-71
2022/03/03 05:37:20;;;;;;;;;;;;;;;;;;5070057;28;19913;-72
2022/03/03 05:39:45;;;;;;;;;;;;;;;;;;5052391;28;19913;-71
2022/03/03 05:42:12;;;;;;;;;;;;;;;;;;5047949;28;19925;-72
2022/03/03 05:44:37;;;;;;;;;;;;;;;;;;5050410;28;20285;-71
2022/03/03 05:47:03;;;;;;;;;;;;;;;;;;5048691;28;19913;-72
2022/03/03 05:49:30;;;;;;;;;;;;;;;;;;5048813;28;19999;-71
2022/03/03 05:51:55;;;;;;;;;;;;;;;;;;5050464;28;20007;-72
2022/03/03 05:54:21;;;;;;;;;;;;;;;;;;5048535;28;20015;-72
2022/03/03 05:56:48;;;;;;;;;;;;;;;;;;5048617;28;19963;-72
2022/03/03 05:59:15;;;;;;;;;;;;;;;;;;5048474;28;19916;-72
2022/03/03 06:01:41;;;;;;;;;;;;;;;;;;5049939;28;20300;-72
2022/03/03 06:04:07;;;;;;;;;;;;;;;;;;5049744;28;19917;-71
2022/03/03 06:06:34;;;;;;;;;;;;;;;;;;5049627;28;19913;-71
2022/03/03 06:09:10;;;;;;;;;;;;;;;;;;5049675;28;19912;-72
2022/03/03 06:11:56;;;;;;;;;;;;;;;;;;5048244;28;19970;-73
2022/03/03 06:14:25;;;;;;;;;;;;;;;;;;5049627;28;20233;-71
2022/03/03 06:16:52;;;;;;;;;;;;;;;;;;5048237;28;19920;-71
2022/03/03 06:19:19;;;;;;;;;;;;;;;;;;5048221;28;19917;-71
2022/03/03 06:21:45;;;;;;;;;;;;;;;;;;5049555;28;20012;-71
2022/03/03 06:24:10;;;;;;;;;;;;;;;;;;5049790;28;19999;-71
2022/03/03 06:26:36;;;;;;;;;;;;;;;;;;5049521;28;20027;-70
2022/03/03 06:29:02;;;;;;;;;;;;;;;;;;5049854;28;19924;-72
2022/03/03 06:31:27;;;;;;;;;;;;;;;;;;5049607;28;20444;-71
2022/03/03 06:33:53;;;;;;;;;;;;;;;;;;5048008;28;20011;-71
2022/03/03 06:36:18;;;;;;;;;;;;;;;;;;5048034;28;19970;-72
2022/03/03 06:38:43;;;;;;;;;;;;;;;;;;5048105;28;19924;-72
2022/03/03 06:41:09;;;;;;;;;;;;;;;;;;5050951;28;20396;-70
2022/03/03 06:43:35;;;;;;;;;;;;;;;;;;5051589;28;19924;-72
2022/03/03 06:46:01;;;;;;;;;;;;;;;;;;5069365;28;20351;-71
2022/03/03 06:48:26;;;;;;;;;;;;;;;;;;5051207;28;20046;-71
2022/03/03 06:50:53;;;;;;;;;;;;;;;;;;5070379;28;19969;-72
2022/03/03 06:53:28;;;;;;;;;;;;;;;;;;5054529;28;20257;-71
2022/03/03 06:55:56;;;;;;;;;;;;;;;;;;5055516;28;19924;-73
2022/03/03 06:58:24;;;;;;;;;;;;;;;;;;5054316;28;19917;-72
2022/03/03 07:00:51;;;;;;;;;;;;;;;;;;5055747;28;20331;-70
2022/03/03 07:03:16;;;;;;;;;;;;;;;;;;5053105;28;19936;-71
2022/03/03 07:05:42;;;;;;;;;;;;;;;;;;5034738;28;19917;-71
2022/03/03 07:08:09;;;;;;;;;;;;;;;;;;5053991;28;20372;-71
2022/03/03 07:10:35;;;;;;;;;;;;;;;;;;5069456;28;19924;-71
2022/03/03 07:13:01;;;;;;;;;;;;;;;;;;5054356;28;19917;-69
2022/03/03 07:15:26;;;;;;;;;;;;;;;;;;5072143;28;20387;-70
2022/03/03 07:17:53;;;;;;;;;;;;;;;;;;5069768;28;19950;-69
2022/03/03 07:20:36;;;;;;;;;;;;;;;;;;5066604;28;19916;-71
2022/03/03 07:23:12;;;;;;;;;;;;;;;;;;5050726;28;20264;-72
2022/03/03 07:25:43;;;;;;;;;;;;;;;;;;5066570;28;19913;-71
2022/03/03 07:28:12;;;;;;;;;;;;;;;;;;5067952;28;20378;-70
2022/03/03 07:30:44;;;;;;;;;;;;;;;;;;5053583;28;19963;-71
2022/03/03 07:33:17;;;;;;;;;;;;;;;;;;5052983;28;19995;-71
2022/03/03 07:35:45;;;;;;;;;;;;;;;;;;5053514;28;20313;-72
2022/03/03 07:38:13;;;;;;;;;;;;;;;;;;5059932;28;19913;-71
2022/03/03 07:40:41;;;;;;;;;;;;;;;;;;5060676;28;20003;-70
2022/03/03 07:43:06;;;;;;;;;;;;;;;;;;5061429;28;19992;-71
2022/03/03 07:45:32;;;;;;;;;;;;;;;;;;5048081;28;20007;-70
2022/03/03 07:47:57;;;;;;;;;;;;;;;;;;5068969;28;19916;-70
2022/03/03 07:50:25;;;;;;;;;;;;;;;;;;5059566;28;19962;-71
2022/03/03 07:52:51;;;;;;;;;;;;;;;;;;5067557;28;19924;-71
2022/03/03 07:55:16;;;;;;;;;;;;;;;;;;5064823;28;20013;-71
2022/03/03 07:57:46;;;;;;;;;;;;;;;;;;5061472;28;19920;-70
2022/03/03 08:00:15;;;;;;;;;;;;;;;;;;5050062;28;19924;-71
2022/03/03 08:02:42;;;;;;;;;;;;;;;;;;5037991;28;19917;-72
2022/03/03 08:05:08;;;;;;;;;;;;;;;;;;5037504;28;20094;-70
2022/03/03 08:07:42;;;;;;;;;;;;;;;;;;5060375;28;19927;-72
2022/03/03 08:10:08;;;;;;;;;;;;;;;;;;5055155;28;19920;-71
2022/03/03 08:12:34;;;;;;;;;;;;;;;;;;5051691;28;20627;-70
2022/03/03 08:15:00;;;;;;;;;;;;;;;;;;5056188;28;20005;-72
2022/03/03 08:17:26;;;;;;;;;;;;;;;;;;5040376;28;19920;-71
2022/03/03 08:19:55;;;;;;;;;;;;;;;;;;5057480;28;20073;-71
2022/03/03 08:24:56;;;;;;;;;;;;;;;;;;5486877;23;19993;-78
2022/03/03 08:27:24;;;;;;;;;;;;;;;;;;4925593;29;20013;-76
2022/03/03 08:29:50;;;;;;;;;;;;;;;;;;4933326;28;19986;-78
2022/03/03 08:32:18;;;;;;;;;;;;;;;;;;4930990;28;19926;-79
2022/03/03 08:34:53;;;;;;;;;;;;;;;;;;4922440;29;20430;-80
2022/03/03 08:37:30;;;;;;;;;;;;;;;;;;4933504;28;19926;-79
2022/03/03 08:39:58;;;;;;;;;;;;;;;;;;4922609;28;19957;-76
2022/03/03 08:42:29;;;;;;;;;;;;;;;;;;4915385;29;20502;-78
2022/03/03 08:44:58;;;;;;;;;;;;;;;;;;4897428;28;20512;-79
2022/03/03 08:47:26;;;;;;;;;;;;;;;;;;4921378;28;20018;-78
2022/03/03 08:49:59;;;;;;;;;;;;;;;;;;4921059;28;19926;-78
2022/03/03 08:52:25;;;;;;;;;;;;;;;;;;4927613;28;20444;-80
2022/03/03 08:54:50;;;;;;;;;;;;;;;;;;4922391;29;19937;-78
2022/03/03 08:57:16;;;;;;;;;;;;;;;;;;4945783;28;20048;-78
2022/03/03 08:59:41;;;;;;;;;;;;;;;;;;4924448;29;19945;-79
2022/03/03 09:02:07;;;;;;;;;;;;;;;;;;4917037;29;20396;-77
2022/03/03 09:04:33;;;;;;;;;;;;;;;;;;4921701;28;19919;-78
2022/03/03 09:06:58;;;;;;;;;;;;;;;;;;4924681;29;19919;-77
2022/03/03 09:09:24;;;;;;;;;;;;;;;;;;4947514;28;19946;-77
2022/03/03 09:11:49;;;;;;;;;;;;;;;;;;4942169;28;19926;-79
2022/03/03 09:14:14;;;;;;;;;;;;;;;;;;4925595;28;20700;-79
2022/03/03 09:16:40;;;;;;;;;;;;;;;;;;4924460;28;19927;-77
2022/03/03 09:19:07;;;;;;;;;;;;;;;;;;4930543;28;20077;-80
2022/03/03 09:21:32;;;;;;;;;;;;;;;;;;4928397;29;19930;-76
2022/03/03 09:23:58;;;;;;;;;;;;;;;;;;4910669;28;20321;-77
2022/03/03 09:26:24;;;;;;;;;;;;;;;;;;4920230;29;19927;-78
2022/03/03 09:28:49;;;;;;;;;;;;;;;;;;4918835;28;20716;-79
2022/03/03 09:31:14;;;;;;;;;;;;;;;;;;4924960;29;19930;-77
2022/03/03 09:33:43;;;;;;;;;;;;;;;;;;4933249;29;20041;-79
2022/03/03 09:36:08;;;;;;;;;;;;;;;;;;4928913;28;20010;-79
2022/03/03 09:38:34;;;;;;;;;;;;;;;;;;4927951;28;19922;-79
2022/03/03 09:41:00;;;;;;;;;;;;;;;;;;4948538;28;19972;-78
2022/03/03 09:43:27;;;;;;;;;;;;;;;;;;4934730;29;20338;-78
2022/03/03 09:45:53;;;;;;;;;;;;;;;;;;4928695;29;19922;-78
2022/03/03 09:48:21;;;;;;;;;;;;;;;;;;4912668;29;20452;-78
2022/03/03 09:50:47;;;;;;;;;;;;;;;;;;4926965;29;19934;-77
2022/03/03 09:53:16;;;;;;;;;;;;;;;;;;4928756;29;19977;-78
2022/03/03 09:55:43;;;;;;;;;;;;;;;;;;4921926;29;19954;-77
2022/03/03 09:58:08;;;;;;;;;;;;;;;;;;4928270;29;20014;-78
2022/03/03 10:00:37;;;;;;;;;;;;;;;;;;4926021;29;19969;-77
2022/03/03 10:03:10;;;;;;;;;;;;;;;;;;4904596;29;19929;-77
2022/03/03 10:05:47;;;;;;;;;;;;;;;;;;4924291;29;19929;-77
2022/03/03 10:08:35;;;;;;;;;;;;;;;;;;4938747;28;20588;-78
2022/03/03 10:11:03;;;;;;;;;;;;;;;;;;4930827;29;19923;-78
2022/03/03 10:13:52;;;;;;;;;;;;;;;;;;4911566;29;20059;-78
2022/03/03 10:16:26;;;;;;;;;;;;;;;;;;4941682;28;19960;-77
2022/03/03 10:18:59;;;;;;;;;;;;;;;;;;4909250;29;20025;-78
2022/03/03 10:21:30;;;;;;;;;;;;;;;;;;4927889;29;19937;-80
2022/03/03 10:23:57;;;;;;;;;;;;;;;;;;4922511;29;19926;-79
2022/03/03 10:26:33;;;;;;;;;;;;;;;;;;4932821;29;20063;-77
2022/03/03 10:28:59;;;;;;;;;;;;;;;;;;4930339;29;20130;-80
2022/03/03 10:31:28;;;;;;;;;;;;;;;;;;4939630;29;19919;-78
2022/03/03 10:33:53;;;;;;;;;;;;;;;;;;4954290;28;20009;-81
2022/03/03 10:36:21;;;;;;;;;;;;;;;;;;4934123;29;20017;-78
2022/03/03 10:38:47;;;;;;;;;;;;;;;;;;4927319;29;19926;-80
2022/03/03 10:41:31;;;;;;;;;;;;;;;;;;4928854;29;19926;-78
2022/03/03 10:44:01;;;;;;;;;;;;;;;;;;4926930;28;19918;-80
2022/03/03 10:46:26;;;;;;;;;;;;;;;;;;4925758;29;19934;-78
2022/03/03 10:48:52;;;;;;;;;;;;;;;;;;4921660;29;20278;-81
2022/03/03 10:51:19;;;;;;;;;;;;;;;;;;4928240;29;19962;-78
2022/03/03 10:53:44;;;;;;;;;;;;;;;;;;4929499;29;20539;-81
2022/03/03 10:56:18;;;;;;;;;;;;;;;;;;4923101;29;19962;-78
2022/03/03 10:58:45;;;;;;;;;;;;;;;;;;4924859;28;20799;-83
2022/03/03 11:01:10;;;;;;;;;;;;;;;;;;4926378;29;20034;-83
2022/03/03 11:03:36;;;;;;;;;;;;;;;;;;4929676;29;20695;-78
2022/03/03 11:06:06;;;;;;;;;;;;;;;;;;4931117;29;20436;-78
2022/03/03 11:08:32;;;;;;;;;;;;;;;;;;4924906;29;19998;-79
2022/03/03 11:10:58;;;;;;;;;;;;;;;;;;4930129;28;19930;-80
2022/03/03 11:13:27;;;;;;;;;;;;;;;;;;4915203;29;19922;-80
2022/03/03 11:15:54;;;;;;;;;;;;;;;;;;4926771;29;19985;-79
2022/03/03 11:18:20;;;;;;;;;;;;;;;;;;4924112;29;19963;-78
2022/03/03 11:20:46;;;;;;;;;;;;;;;;;;4923260;29;19934;-78
2022/03/03 11:23:11;;;;;;;;;;;;;;;;;;4929160;29;19994;-79
2022/03/03 11:25:38;;;;;;;;;;;;;;;;;;4923772;28;20108;-77
2022/03/03 11:28:04;;;;;;;;;;;;;;;;;;4927635;29;20453;-79
2022/03/03 11:30:32;;;;;;;;;;;;;;;;;;4923776;29;19918;-78
2022/03/03 11:33:16;;;;;;;;;;;;;;;;;;4933174;29;20370;-77
2022/03/03 11:35:48;;;;;;;;;;;;;;;;;;4932368;28;19923;-81
2022/03/03 11:38:14;;;;;;;;;;;;;;;;;;4925293;28;19932;-78
2022/03/03 11:41:00;;;;;;;;;;;;;;;;;;4908335;29;19958;-78
2022/03/03 11:43:27;;;;;;;;;;;;;;;;;;4931830;29;19926;-78
2022/03/03 11:45:58;;;;;;;;;;;;;;;;;;4926658;28;19926;-77
2022/03/03 11:48:36;;;;;;;;;;;;;;;;;;4929951;29;20427;-78
2022/03/03 11:51:22;;;;;;;;;;;;;;;;;;4933056;29;19985;-79
2022/03/03 11:53:49;;;;;;;;;;;;;;;;;;4929314;29;19961;-79
2022/03/03 11:56:14;;;;;;;;;;;;;;;;;;4936160;29;19931;-81
2022/03/03 11:58:41;;;;;;;;;;;;;;;;;;4928930;29;19968;-79
2022/03/03 12:01:08;;;;;;;;;;;;;;;;;;4932572;29;19930;-78
2022/03/03 12:04:06;;;;;;;;;;;;;;;;;;4949711;28;19930;-76
2022/03/03 12:06:50;;;;;;;;;;;;;;;;;;4912345;29;20544;-78
2022/03/03 12:09:21;;;;;;;;;;;;;;;;;;4921612;29;19926;-79
2022/03/03 12:11:47;;;;;;;;;;;;;;;;;;4934557;28;20642;-80
2022/03/03 12:14:29;;;;;;;;;;;;;;;;;;4934120;29;19986;-77
2022/03/03 12:17:15;;;;;;;;;;;;;;;;;;4940049;29;19937;-80
2022/03/03 12:19:46;;;;;;;;;;;;;;;;;;4924302;29;20137;-79
2022/03/03 12:22:25;;;;;;;;;;;;;;;;;;4930491;29;19919;-77
2022/03/03 12:24:51;;;;;;;;;;;;;;;;;;4930017;28;19934;-77
2022/03/03 12:27:16;;;;;;;;;;;;;;;;;;4934420;29;20967;-76
2022/03/03 12:29:49;;;;;;;;;;;;;;;;;;4929706;29;19923;-78
2022/03/03 12:32:33;;;;;;;;;;;;;;;;;;4939921;28;19934;-79
2022/03/03 12:35:00;;;;;;;;;;;;;;;;;;4916522;29;19985;-80
2022/03/03 12:37:26;;;;;;;;;;;;;;;;;;4941358;29;19930;-78
2022/03/03 12:39:52;;;;;;;;;;;;;;;;;;4926295;29;19978;-77
2022/03/03 12:42:23;;;;;;;;;;;;;;;;;;4936298;29;19919;-82
2022/03/03 12:45:09;;;;;;;;;;;;;;;;;;4938882;28;19933;-78
2022/03/03 12:47:34;;;;;;;;;;;;;;;;;;4902677;29;19926;-77
2022/03/03 12:50:04;;;;;;;;;;;;;;;;;;4921354;29;19982;-76
2022/03/03 12:52:29;;;;;;;;;;;;;;;;;;4939543;28;19976;-75
2022/03/03 12:54:56;;;;;;;;;;;;;;;;;;4920246;29;20009;-80
2022/03/03 12:57:30;;;;;;;;;;;;;;;;;;4939336;28;20002;-77
2022/03/03 12:59:57;;;;;;;;;;;;;;;;;;4903236;29;19937;-79
2022/03/03 13:02:22;;;;;;;;;;;;;;;;;;4925639;29;19990;-80
2022/03/03 13:04:48;;;;;;;;;;;;;;;;;;4919081;29;19922;-78
2022/03/03 13:07:14;;;;;;;;;;;;;;;;;;4927234;29;19922;-79
2022/03/03 13:09:56;;;;;;;;;;;;;;;;;;4920805;29;20456;-79
2022/03/03 13:12:21;;;;;;;;;;;;;;;;;;4923111;29;20512;-80
2022/03/03 13:14:57;;;;;;;;;;;;;;;;;;4926926;29;19932;-80
2022/03/03 13:17:23;;;;;;;;;;;;;;;;;;4925894;29;19926;-79
2022/03/03 13:19:50;;;;;;;;;;;;;;;;;;4918548;29;20026;-80
2022/03/03 13:22:16;;;;;;;;;;;;;;;;;;4926989;29;19938;-78
2022/03/03 13:24:44;;;;;;;;;;;;;;;;;;4926665;29;19929;-77
2022/03/03 13:27:10;;;;;;;;;;;;;;;;;;4924731;29;19997;-76
2022/03/03 13:29:36;;;;;;;;;;;;;;;;;;4928635;29;19938;-79
2022/03/03 13:32:10;;;;;;;;;;;;;;;;;;4929973;28;20026;-79
2022/03/03 13:34:38;;;;;;;;;;;;;;;;;;4931754;29;20009;-79
2022/03/03 13:37:13;;;;;;;;;;;;;;;;;;4929442;29;19927;-76
2022/03/03 13:39:39;;;;;;;;;;;;;;;;;;4941025;28;19979;-78
2022/03/03 13:42:11;;;;;;;;;;;;;;;;;;4931565;29;20002;-77
2022/03/03 13:44:57;;;;;;;;;;;;;;;;;;4923069;29;19919;-77
2022/03/03 13:47:27;;;;;;;;;;;;;;;;;;4939542;28;20827;-77
2022/03/03 13:49:53;;;;;;;;;;;;;;;;;;4930686;29;19928;-78
2022/03/03 13:52:28;;;;;;;;;;;;;;;;;;4926298;29;19927;-78
2022/03/03 13:54:56;;;;;;;;;;;;;;;;;;4926128;29;19929;-77
2022/03/03 13:57:32;;;;;;;;;;;;;;;;;;4925139;29;20017;-78
2022/03/03 13:59:58;;;;;;;;;;;;;;;;;;4930586;29;19974;-77
2022/03/03 14:02:25;;;;;;;;;;;;;;;;;;4927136;28;20409;-78
2022/03/03 14:05:01;;;;;;;;;;;;;;;;;;4932226;29;20123;-79
2022/03/03 14:07:28;;;;;;;;;;;;;;;;;;4930192;28;20373;-78
2022/03/03 14:10:00;;;;;;;;;;;;;;;;;;4927402;28;19944;-78
2022/03/03 14:12:26;;;;;;;;;;;;;;;;;;4925526;29;19955;-78
2022/03/03 14:14:51;;;;;;;;;;;;;;;;;;4924431;29;19923;-78
2022/03/03 14:17:17;;;;;;;;;;;;;;;;;;4923018;29;19923;-78
2022/03/03 14:19:43;;;;;;;;;;;;;;;;;;4917710;29;19919;-76
2022/03/03 14:22:09;;;;;;;;;;;;;;;;;;4918999;29;19926;-76
2022/03/03 14:24:36;;;;;;;;;;;;;;;;;;4916131;29;19965;-76
2022/03/03 14:27:02;;;;;;;;;;;;;;;;;;4919763;29;19931;-77
2022/03/03 14:29:27;;;;;;;;;;;;;;;;;;4916273;29;19927;-76
2022/03/03 14:31:53;;;;;;;;;;;;;;;;;;4916622;29;20309;-77
2022/03/03 14:34:19;;;;;;;;;;;;;;;;;;4920336;29;19986;-77
2022/03/03 14:36:44;;;;;;;;;;;;;;;;;;4924185;29;20445;-76
2022/03/03 14:39:11;;;;;;;;;;;;;;;;;;4917505;29;20001;-79
2022/03/03 14:41:36;;;;;;;;;;;;;;;;;;4920174;29;20021;-78
2022/03/03 14:44:01;;;;;;;;;;;;;;;;;;4926314;29;19918;-80
2022/03/03 14:46:29;;;;;;;;;;;;;;;;;;4922106;29;19930;-77
2022/03/03 14:48:55;;;;;;;;;;;;;;;;;;4917554;29;19951;-78
2022/03/03 14:51:20;;;;;;;;;;;;;;;;;;4926085;29;19974;-76
2022/03/03 14:53:47;;;;;;;;;;;;;;;;;;4923306;29;20446;-75
2022/03/03 14:56:14;;;;;;;;;;;;;;;;;;4921883;29;19949;-79
2022/03/03 14:58:39;;;;;;;;;;;;;;;;;;4922014;29;19998;-80
2022/03/03 15:01:05;;;;;;;;;;;;;;;;;;4922265;29;19966;-80
2022/03/03 15:03:30;;;;;;;;;;;;;;;;;;4917968;29;19938;-77
2022/03/03 15:05:55;;;;;;;;;;;;;;;;;;4923019;29;19929;-77
2022/03/03 15:08:21;;;;;;;;;;;;;;;;;;4919213;29;19926;-79
2022/03/03 15:10:47;;;;;;;;;;;;;;;;;;4916493;29;19919;-80
2022/03/03 15:13:12;;;;;;;;;;;;;;;;;;4907411;29;20264;-79
2022/03/03 15:15:38;;;;;;;;;;;;;;;;;;4927821;29;20009;-78
2022/03/03 15:18:06;;;;;;;;;;;;;;;;;;4945976;29;19967;-79
2022/03/03 15:20:31;;;;;;;;;;;;;;;;;;4925473;29;19919;-74
2022/03/03 15:22:57;;;;;;;;;;;;;;;;;;4920930;29;19926;-76
2022/03/03 15:25:22;;;;;;;;;;;;;;;;;;4921081;29;20688;-77
2022/03/03 15:27:48;;;;;;;;;;;;;;;;;;4929227;29;19995;-78
2022/03/03 15:30:13;;;;;;;;;;;;;;;;;;4930911;29;19926;-78
2022/03/03 15:32:39;;;;;;;;;;;;;;;;;;4923321;29;19929;-77
2022/03/03 15:37:48;;;;;;;;;;;;;;;;;;4928376;29;20358;-79
2022/03/03 15:40:14;;;;;;;;;;;;;;;;;;4929579;29;19919;-79
2022/03/03 15:42:40;;;;;;;;;;;;;;;;;;4929195;29;19947;-78
2022/03/03 15:45:06;;;;;;;;;;;;;;;;;;4925772;29;19930;-77
2022/03/03 15:47:31;;;;;;;;;;;;;;;;;;4925696;29;19945;-77
2022/03/03 15:49:56;;;;;;;;;;;;;;;;;;4925445;29;19970;-81
2022/03/03 15:52:22;;;;;;;;;;;;;;;;;;4943388;29;19919;-78
2022/03/03 15:54:49;;;;;;;;;;;;;;;;;;4923977;29;19926;-80
2022/03/03 15:57:14;;;;;;;;;;;;;;;;;;4920966;29;20006;-80
2022/03/03 15:59:39;;;;;;;;;;;;;;;;;;4931726;29;20421;-78
2022/03/03 16:02:05;;;;;;;;;;;;;;;;;;4928242;29;19927;-78
2022/03/03 16:04:31;;;;;;;;;;;;;;;;;;4925042;29;19933;-77
2022/03/03 16:06:56;;;;;;;;;;;;;;;;;;4928970;29;19958;-78
2022/03/03 16:09:22;;;;;;;;;;;;;;;;;;4938951;29;20545;-81
2022/03/03 16:11:48;;;;;;;;;;;;;;;;;;4920945;29;19919;-78
2022/03/03 16:14:14;;;;;;;;;;;;;;;;;;4927722;29;19930;-79
2022/03/03 16:16:41;;;;;;;;;;;;;;;;;;4919769;29;20460;-78
2022/03/03 16:19:06;;;;;;;;;;;;;;;;;;4921362;29;19946;-77
2022/03/03 16:21:33;;;;;;;;;;;;;;;;;;4949391;29;20571;-78
2022/03/03 16:23:58;;;;;;;;;;;;;;;;;;4932263;29;19914;-79
2022/03/03 16:26:24;;;;;;;;;;;;;;;;;;4933056;29;19918;-76
2022/03/03 16:28:49;;;;;;;;;;;;;;;;;;4913324;29;20410;-79
2022/03/03 16:31:34;;;;;;;;;;;;;;;;;;4931447;29;19962;-79
2022/03/03 16:33:59;;;;;;;;;;;;;;;;;;4926211;29;19983;-77
2022/03/03 16:36:24;;;;;;;;;;;;;;;;;;4927106;29;20077;-78
2022/03/03 16:38:50;;;;;;;;;;;;;;;;;;4932188;29;19967;-79
2022/03/03 16:41:15;;;;;;;;;;;;;;;;;;4927700;29;19929;-79
2022/03/03 16:43:41;;;;;;;;;;;;;;;;;;4942572;29;20422;-79
2022/03/03 16:46:07;;;;;;;;;;;;;;;;;;4927863;29;19927;-80
2022/03/03 16:48:32;;;;;;;;;;;;;;;;;;4925330;29;19923;-80
2022/03/03 16:50:58;;;;;;;;;;;;;;;;;;4926503;29;19919;-80
2022/03/03 16:53:23;;;;;;;;;;;;;;;;;;4929714;29;19919;-79
2022/03/03 16:55:48;;;;;;;;;;;;;;;;;;4920782;29;19923;-80